createdAt,value
2022-11-16T00:01:29.582Z,-3.65
2022-11-16T00:04:00.448Z,-3.68
2022-11-16T00:06:30.484Z,-3.62
2022-11-16T00:09:14.699Z,-3.66
2022-11-16T00:11:51.881Z,-3.74
2022-11-16T00:14:22.572Z,-3.75
2022-11-16T00:16:53.971Z,-3.54
2022-11-16T00:19:23.606Z,-3.56
2022-11-16T00:21:52.920Z,-3.63
2022-11-16T00:24:24.359Z,-3.59
2022-11-16T00:26:56.499Z,-3.54
2022-11-16T00:29:33.170Z,-3.54
2022-11-16T00:32:04.357Z,-3.61
2022-11-16T00:34:34.123Z,-3.46
2022-11-16T00:37:03.319Z,-3.50
2022-11-16T00:39:32.642Z,-3.66
2022-11-16T00:42:07.049Z,-3.71
2022-11-16T00:44:36.347Z,-3.71
2022-11-16T00:47:07.668Z,-3.86
2022-11-16T00:49:38.010Z,-3.75
2022-11-16T00:52:12.349Z,-3.74
2022-11-16T00:54:41.421Z,-3.62
2022-11-16T00:57:10.765Z,-3.63
2022-11-16T00:59:40.600Z,-3.68
2022-11-16T01:02:11.949Z,-3.67
2022-11-16T01:04:43.745Z,-3.82
2022-11-16T01:07:13.077Z,-3.73
2022-11-16T01:09:43.329Z,-3.76
2022-11-16T01:12:10.486Z,-3.92
2022-11-16T01:14:41.744Z,-4.07
2022-11-16T01:17:13.328Z,-3.94
2022-11-16T01:19:43.632Z,-3.91
2022-11-16T01:22:12.944Z,-3.76
2022-11-16T01:24:42.486Z,-3.96
2022-11-16T01:27:11.729Z,-3.75
2022-11-16T01:29:50.020Z,-3.77
2022-11-16T01:32:21.959Z,-3.86
2022-11-16T01:34:51.570Z,-3.82
2022-11-16T01:37:38.363Z,-4.01
2022-11-16T01:40:09.247Z,-3.78
2022-11-16T01:42:40.198Z,-3.84
2022-11-16T01:45:35.824Z,-3.71
2022-11-16T01:48:11.499Z,-3.67
2022-11-16T01:50:48.275Z,-3.79
2022-11-16T01:53:18.621Z,-3.75
2022-11-16T01:58:56.828Z,-3.75
2022-11-16T02:01:28.552Z,-3.81
2022-11-16T02:04:03.040Z,-3.93
2022-11-16T02:06:53.656Z,-3.78
2022-11-16T02:09:54.956Z,-3.81
2022-11-16T02:13:06.742Z,-3.89
2022-11-16T02:15:47.599Z,-3.72
2022-11-16T02:18:36.150Z,-3.96
2022-11-16T02:21:24.074Z,-3.81
2022-11-16T02:24:08.417Z,-3.80
2022-11-16T02:27:04.613Z,-3.84
2022-11-16T02:29:39.999Z,-3.82
2022-11-16T02:32:15.061Z,-3.91
2022-11-16T02:34:53.025Z,-3.91
2022-11-16T02:37:31.223Z,-4.04
2022-11-16T02:40:09.461Z,-4.02
2022-11-16T02:42:45.185Z,-3.97
2022-11-16T02:45:23.285Z,-3.97
2022-11-16T02:47:56.821Z,-4.01
2022-11-16T02:50:32.950Z,-4.10
2022-11-16T02:53:02.142Z,-4.11
2022-11-16T02:55:41.522Z,-4.28
2022-11-16T02:58:14.550Z,-4.20
2022-11-16T03:01:01.493Z,-4.22
2022-11-16T03:03:42.880Z,-4.31
2022-11-16T03:06:18.472Z,-4.26
2022-11-16T03:09:02.156Z,-4.27
2022-11-16T03:11:47.276Z,-4.36
2022-11-16T03:14:20.781Z,-4.37
2022-11-16T03:16:55.655Z,-4.28
2022-11-16T03:19:31.535Z,-4.38
2022-11-16T03:22:06.008Z,-4.48
2022-11-16T03:24:38.667Z,-4.61
2022-11-16T03:27:19.632Z,-4.64
2022-11-16T03:29:57.915Z,-4.92
2022-11-16T03:32:32.686Z,-4.63
2022-11-16T03:35:05.142Z,-4.61
2022-11-16T03:37:42.285Z,-4.72
2022-11-16T03:40:15.992Z,-4.60
2022-11-16T03:42:49.136Z,-4.70
2022-11-16T03:45:20.846Z,-4.58
2022-11-16T03:47:54.324Z,-4.76
2022-11-16T03:50:25.179Z,-4.75
2022-11-16T03:53:00.703Z,-4.94
2022-11-16T03:55:30.039Z,-4.84
2022-11-16T03:58:00.694Z,-4.75
2022-11-16T04:00:30.398Z,-4.87
2022-11-16T04:03:01.632Z,-4.85
2022-11-16T04:05:43.980Z,-4.68
2022-11-16T04:08:29.849Z,-4.81
2022-11-16T04:11:17.712Z,-4.76
2022-11-16T04:14:09.191Z,-4.88
2022-11-16T04:17:05.993Z,-4.99
2022-11-16T04:19:52.840Z,-5.00
2022-11-16T04:22:40.889Z,-5.02
2022-11-16T04:25:14.230Z,-4.96
2022-11-16T04:28:01.853Z,-5.11
2022-11-16T04:30:51.212Z,-5.08
2022-11-16T04:33:34.797Z,-5.02
2022-11-16T04:36:29.509Z,-4.96
2022-11-16T04:39:05.688Z,-4.94
2022-11-16T04:41:53.208Z,-5.25
2022-11-16T04:44:51.156Z,-4.97
2022-11-16T04:47:18.572Z,-4.86
2022-11-16T04:49:49.386Z,-4.87
2022-11-16T04:54:57.490Z,-4.95
2022-11-16T04:57:26.970Z,-4.91
2022-11-16T04:59:57.006Z,-4.90
2022-11-16T05:02:26.607Z,-5.11
2022-11-16T05:04:59.339Z,-5.00
2022-11-16T05:07:36.562Z,-4.99
2022-11-16T05:10:13.871Z,-5.06
2022-11-16T05:12:43.536Z,-5.20
2022-11-16T05:15:13.315Z,-5.52
2022-11-16T05:17:47.832Z,-5.41
2022-11-16T05:20:34.757Z,-5.52
2022-11-16T05:23:28.486Z,-5.71
2022-11-16T05:26:00.613Z,-5.83
2022-11-16T05:28:30.608Z,-5.69
2022-11-16T05:31:00.335Z,-5.77
2022-11-16T05:33:31.458Z,-5.72
2022-11-16T05:36:00.906Z,-5.74
2022-11-16T05:41:08.721Z,-5.78
2022-11-16T05:43:43.088Z,-5.76
2022-11-16T05:46:18.595Z,-5.74
2022-11-16T05:48:53.274Z,-5.75
2022-11-16T05:51:22.667Z,-5.79
2022-11-16T05:53:53.954Z,-5.71
2022-11-16T05:56:25.405Z,-5.82
2022-11-16T05:58:56.956Z,-5.70
2022-11-16T06:01:27.767Z,-5.74
2022-11-16T06:04:02.431Z,-5.57
2022-11-16T06:06:34.102Z,-5.57
2022-11-16T06:09:11.436Z,-5.50
2022-11-16T06:11:41.378Z,-5.54
2022-11-16T06:14:10.565Z,-5.50
2022-11-16T06:16:46.455Z,-5.39
2022-11-16T06:19:15.747Z,-5.35
2022-11-16T06:21:50.250Z,-5.35
2022-11-16T06:24:24.641Z,-5.32
2022-11-16T06:26:54.713Z,-5.18
2022-11-16T06:29:24.224Z,-5.25
2022-11-16T06:31:55.663Z,-5.06
2022-11-16T06:34:30.109Z,-5.07
2022-11-16T06:37:00.354Z,-5.06
2022-11-16T06:39:31.788Z,-5.01
2022-11-16T06:42:01.139Z,-5.12
2022-11-16T06:44:31.217Z,-5.11
2022-11-16T06:47:03.951Z,-5.11
2022-11-16T06:49:34.085Z,-5.21
2022-11-16T06:52:10.292Z,-5.12
2022-11-16T06:54:41.743Z,-5.05
2022-11-16T06:57:11.141Z,-5.03
2022-11-16T06:59:40.393Z,-4.95
2022-11-16T07:02:12.188Z,-5.01
2022-11-16T07:04:42.136Z,-5.05
2022-11-16T07:07:11.587Z,-4.87
2022-11-16T07:09:44.244Z,-4.80
2022-11-16T07:12:13.811Z,-4.88
2022-11-16T07:14:45.054Z,-4.88
2022-11-16T07:17:14.345Z,-4.86
2022-11-16T07:19:44.063Z,-4.79
2022-11-16T07:22:14.699Z,-4.87
2022-11-16T07:24:46.776Z,-4.77
2022-11-16T07:27:22.867Z,-4.71
2022-11-16T07:29:53.768Z,-4.76
2022-11-16T07:32:46.025Z,-4.89
2022-11-16T07:35:28.993Z,-4.69
2022-11-16T07:37:58.331Z,-4.70
2022-11-16T07:40:29.451Z,-4.64
2022-11-16T07:42:59.837Z,-4.77
2022-11-16T07:45:55.733Z,-4.58
2022-11-16T07:48:28.904Z,-4.46
2022-11-16T07:51:45.359Z,-4.58
2022-11-16T07:54:33.072Z,-4.40
2022-11-16T07:57:04.265Z,-4.39
2022-11-16T07:59:39.503Z,-4.32
2022-11-16T08:02:09.182Z,-4.25
2022-11-16T08:04:40.719Z,-4.33
2022-11-16T08:07:11.117Z,-4.26
2022-11-16T08:09:48.254Z,-4.25
2022-11-16T08:12:20.166Z,-4.14
2022-11-16T08:14:54.800Z,-4.06
2022-11-16T08:17:25.983Z,-3.97
2022-11-16T08:19:56.420Z,-3.92
2022-11-16T08:22:26.365Z,-4.04
2022-11-16T08:24:55.507Z,-3.89
2022-11-16T08:27:28.873Z,-3.89
2022-11-16T08:29:59.515Z,-3.90
2022-11-16T08:32:29.340Z,-3.94
2022-11-16T08:34:58.643Z,-3.91
2022-11-16T08:37:28.040Z,-3.82
2022-11-16T08:39:57.502Z,-3.81
2022-11-16T08:42:28.712Z,-3.77
2022-11-16T08:45:02.926Z,-3.73
2022-11-16T08:47:33.847Z,-3.67
2022-11-16T08:50:04.523Z,-3.59
2022-11-16T08:52:34.885Z,-3.55
2022-11-16T08:55:11.228Z,-3.59
2022-11-16T08:57:44.522Z,-3.47
2022-11-16T09:00:16.658Z,-3.64
2022-11-16T09:02:46.078Z,-3.43
2022-11-16T09:05:15.757Z,-3.41
2022-11-16T09:07:49.052Z,-3.53
2022-11-16T09:10:22.438Z,-3.61
2022-11-16T09:12:54.219Z,-3.70
2022-11-16T09:15:23.577Z,-3.69
2022-11-16T09:17:54.527Z,-3.68
2022-11-16T09:20:29.032Z,-3.70
2022-11-16T09:22:58.302Z,-3.74
2022-11-16T09:25:27.487Z,-3.82
2022-11-16T09:30:33.561Z,-3.65
2022-11-16T09:33:02.795Z,-3.62
2022-11-16T09:35:32.041Z,-3.61
2022-11-16T09:38:06.254Z,-3.73
2022-11-16T09:43:44.109Z,-3.65
2022-11-16T09:46:30.746Z,-3.52
2022-11-16T09:49:03.589Z,-3.47
2022-11-16T09:51:35.995Z,-3.62
2022-11-16T09:54:13.615Z,-3.49
2022-11-16T09:56:44.421Z,-3.51
2022-11-16T09:59:23.831Z,-3.12
2022-11-16T10:01:58.848Z,-2.81
2022-11-16T10:04:39.857Z,-2.77
2022-11-16T10:07:17.017Z,-2.32
2022-11-16T10:09:46.886Z,-1.99
2022-11-16T10:12:24.456Z,-2.00
2022-11-16T10:15:34.431Z,-1.87
2022-11-16T10:18:18.686Z,-1.82
2022-11-16T10:21:09.578Z,-2.05
2022-11-16T10:23:52.012Z,-2.16
2022-11-16T10:26:34.053Z,-2.31
2022-11-16T10:29:33.208Z,-2.57
2022-11-16T10:32:29.758Z,-2.51
2022-11-16T10:35:03.902Z,-2.49
2022-11-16T10:37:36.145Z,-2.52
2022-11-16T10:40:24.633Z,-2.42
2022-11-16T10:43:02.201Z,-2.45
2022-11-16T10:45:37.103Z,-2.58
2022-11-16T10:48:18.105Z,-2.69
2022-11-16T10:50:54.672Z,-2.71
2022-11-16T10:53:34.902Z,-2.67
2022-11-16T10:56:19.255Z,-2.70
2022-11-16T10:58:59.413Z,-2.72
2022-11-16T11:01:37.718Z,-2.59
2022-11-16T11:04:24.009Z,-2.47
2022-11-16T11:06:57.508Z,-2.46
2022-11-16T11:09:29.753Z,-2.57
2022-11-16T11:12:27.815Z,-2.67
2022-11-16T11:15:03.484Z,-2.67
2022-11-16T11:17:35.063Z,-2.67
2022-11-16T11:20:08.567Z,-2.65
2022-11-16T11:22:49.003Z,-2.71
2022-11-16T11:25:23.580Z,-2.83
2022-11-16T11:27:54.460Z,-3.05
2022-11-16T11:30:24.836Z,-2.91
2022-11-16T11:32:54.388Z,-3.08
2022-11-16T11:35:31.794Z,-3.13
2022-11-16T11:38:08.050Z,-3.16
2022-11-16T11:40:37.882Z,-3.17
2022-11-16T11:43:08.174Z,-3.25
2022-11-16T11:45:44.380Z,-3.31
2022-11-16T11:48:29.337Z,-3.10
2022-11-16T11:51:05.406Z,-3.11
2022-11-16T11:53:45.989Z,-3.00
2022-11-16T11:56:16.815Z,-3.07
2022-11-16T11:58:47.454Z,-3.07
2022-11-16T12:01:47.862Z,-3.13
2022-11-16T12:04:49.813Z,-3.21
2022-11-16T12:07:34.120Z,-3.11
2022-11-16T12:10:11.286Z,-3.25
2022-11-16T12:12:52.074Z,-3.26
2022-11-16T12:15:41.512Z,-3.37
2022-11-16T12:18:29.721Z,-3.58
2022-11-16T12:21:06.877Z,-3.71
2022-11-16T12:24:05.942Z,-3.84
2022-11-16T12:26:46.490Z,-3.78
2022-11-16T12:29:27.529Z,-3.88
2022-11-16T12:32:25.798Z,-3.73
2022-11-16T12:35:09.157Z,-3.83
2022-11-16T12:37:48.981Z,-3.87
2022-11-16T12:40:35.515Z,-3.93
2022-11-16T12:43:13.168Z,-3.93
2022-11-16T12:46:03.421Z,-4.03
2022-11-16T12:55:43.198Z,-4.16
2022-11-16T12:58:24.860Z,-4.30
2022-11-16T13:01:06.385Z,-4.24
2022-11-16T13:03:42.978Z,-4.32
2022-11-16T13:06:18.188Z,-4.25
2022-11-16T13:08:58.917Z,-4.14
2022-11-16T13:11:34.364Z,-4.19
2022-11-16T13:14:09.181Z,-4.16
2022-11-16T13:16:38.406Z,-4.27
2022-11-16T13:19:12.228Z,-4.34
2022-11-16T13:21:56.483Z,-4.28
2022-11-16T13:24:34.569Z,-4.30
2022-11-16T13:27:24.237Z,-4.32
2022-11-16T13:30:00.952Z,-4.38
2022-11-16T13:32:48.117Z,-4.37
2022-11-16T13:35:20.520Z,-4.42
2022-11-16T13:37:51.286Z,-4.34
2022-11-16T13:40:28.987Z,-4.27
2022-11-16T13:43:18.585Z,-4.28
2022-11-16T13:45:57.494Z,-4.36
2022-11-16T13:48:30.195Z,-4.34
2022-11-16T13:51:02.274Z,-4.39
2022-11-16T13:54:37.976Z,-4.31
2022-11-16T13:56:28.635Z,-4.29
2022-11-16T13:59:05.962Z,-4.58
2022-11-16T14:02:00.200Z,-4.36
2022-11-16T14:04:42.574Z,-4.36
2022-11-16T14:07:42.461Z,-4.37
2022-11-16T14:10:13.846Z,-4.43
2022-11-16T14:12:53.981Z,-4.45
2022-11-16T14:15:35.296Z,-4.56
2022-11-16T14:18:39.338Z,-4.47
2022-11-16T14:21:26.245Z,-4.45
2022-11-16T14:24:09.585Z,-4.35
2022-11-16T14:26:55.579Z,-4.47
2022-11-16T14:29:38.294Z,-4.44
2022-11-16T14:32:21.600Z,-4.40
2022-11-16T14:34:53.171Z,-4.41
2022-11-16T14:37:36.036Z,-4.43
2022-11-16T14:40:10.950Z,-4.36
2022-11-16T14:43:10.034Z,-4.32
2022-11-16T14:45:40.452Z,-4.34
2022-11-16T14:48:19.361Z,-4.49
2022-11-16T14:51:02.248Z,-4.50
2022-11-16T14:53:39.445Z,-4.50
2022-11-16T14:56:12.431Z,-4.47
2022-11-16T14:58:41.932Z,-4.59
2022-11-16T15:01:16.488Z,-4.48
2022-11-16T15:03:55.510Z,-4.43
2022-11-16T15:06:26.794Z,-4.47
2022-11-16T15:09:04.769Z,-4.42
2022-11-16T15:11:54.844Z,-4.43
2022-11-16T15:14:33.264Z,-4.46
2022-11-16T15:17:02.935Z,-4.42
2022-11-16T15:19:34.072Z,-4.43
2022-11-16T15:22:05.962Z,-4.45
2022-11-16T15:24:35.849Z,-4.38
2022-11-16T15:27:21.975Z,-4.45
2022-11-16T15:29:51.732Z,-4.43
2022-11-16T15:32:20.928Z,-4.45
2022-11-16T15:34:55.166Z,-4.47
2022-11-16T15:37:31.163Z,-4.45
2022-11-16T15:40:02.869Z,-4.77
2022-11-16T15:42:33.039Z,-4.52
2022-11-16T15:45:14.398Z,-4.44
2022-11-16T15:47:46.609Z,-4.51
2022-11-16T15:50:22.756Z,-4.51
2022-11-16T15:52:54.864Z,-4.54
2022-11-16T15:55:36.407Z,-4.48
2022-11-16T15:58:15.596Z,-4.52
2022-11-16T16:00:49.843Z,-4.62
2022-11-16T16:03:22.789Z,-4.55
2022-11-16T16:05:56.313Z,-4.65
2022-11-16T16:08:34.848Z,-4.58
2022-11-16T16:11:12.329Z,-4.77
2022-11-16T16:13:43.765Z,-4.67
2022-11-16T16:16:28.978Z,-4.82
2022-11-16T16:19:08.184Z,-4.56
2022-11-16T16:21:52.955Z,-4.58
2022-11-16T16:24:39.575Z,-4.65
2022-11-16T16:29:56.810Z,-4.69
2022-11-16T16:32:31.600Z,-4.83
2022-11-16T16:35:03.963Z,-4.82
2022-11-16T16:37:42.613Z,-5.01
2022-11-16T16:40:13.004Z,-5.00
2022-11-16T16:42:42.518Z,-4.88
2022-11-16T16:45:18.540Z,-4.85
2022-11-16T16:47:49.114Z,-4.85
2022-11-16T16:50:18.997Z,-4.84
2022-11-16T16:52:50.328Z,-4.93
2022-11-16T16:55:20.475Z,-4.82
2022-11-16T16:57:49.961Z,-4.96
2022-11-16T17:00:20.404Z,-4.81
2022-11-16T17:02:50.181Z,-5.00
2022-11-16T17:05:24.548Z,-4.74
2022-11-16T17:07:57.453Z,-4.78
2022-11-16T17:10:27.448Z,-4.83
2022-11-16T17:12:58.437Z,-4.77
2022-11-16T17:15:29.357Z,-4.73
2022-11-16T17:18:00.804Z,-4.75
2022-11-16T17:20:30.773Z,-4.74
2022-11-16T17:23:03.555Z,-4.74
2022-11-16T17:25:33.901Z,-4.69
2022-11-16T17:28:04.122Z,-4.64
2022-11-16T17:30:34.597Z,-4.63
2022-11-16T17:33:10.819Z,-4.63
2022-11-16T17:35:41.067Z,-4.70
2022-11-16T17:38:14.385Z,-4.76
2022-11-16T17:40:45.154Z,-4.82
2022-11-16T17:43:14.505Z,-4.79
2022-11-16T17:45:46.777Z,-4.82
2022-11-16T17:48:26.947Z,-4.80
2022-11-16T17:50:56.529Z,-4.88
2022-11-16T17:53:32.427Z,-4.91
2022-11-16T17:56:06.118Z,-4.88
2022-11-16T17:58:35.609Z,-4.88
2022-11-16T18:01:06.114Z,-4.85
2022-11-16T18:03:46.665Z,-4.84
2022-11-16T18:06:20.073Z,-4.86
2022-11-16T18:08:51.726Z,-4.88
2022-11-16T18:11:23.477Z,-4.95
2022-11-16T18:13:55.442Z,-5.02
2022-11-16T18:16:27.327Z,-5.06
2022-11-16T18:19:07.843Z,-5.10
2022-11-16T18:21:43.427Z,-5.20
2022-11-16T18:24:15.262Z,-5.34
2022-11-16T18:26:45.391Z,-5.44
2022-11-16T18:29:18.190Z,-5.46
2022-11-16T18:31:49.252Z,-5.50
2022-11-16T18:34:19.119Z,-5.54
2022-11-16T18:36:50.566Z,-5.60
2022-11-16T18:39:26.936Z,-5.64
2022-11-16T18:41:56.302Z,-5.65
2022-11-16T18:44:28.344Z,-5.67
2022-11-16T18:46:57.766Z,-5.62
2022-11-16T18:49:33.103Z,-5.63
2022-11-16T18:52:02.566Z,-5.55
2022-11-16T18:54:34.197Z,-5.44
2022-11-16T18:57:04.859Z,-5.33
2022-11-16T19:02:20.740Z,-5.09
2022-11-16T19:04:49.958Z,-5.07
2022-11-16T19:07:19.267Z,-5.02
2022-11-16T19:09:50.276Z,-4.79
2022-11-16T19:12:19.599Z,-4.63
2022-11-16T19:14:48.808Z,-4.49
2022-11-16T19:17:18.514Z,-4.38
2022-11-16T19:19:47.577Z,-4.26
2022-11-16T19:22:16.831Z,-4.12
2022-11-16T19:24:46.010Z,-4.12
2022-11-16T19:27:17.424Z,-3.94
2022-11-16T19:29:46.985Z,-3.85
2022-11-16T19:32:16.073Z,-3.74
2022-11-16T19:34:51.533Z,-3.66
2022-11-16T19:37:20.717Z,-3.60
2022-11-16T19:39:49.815Z,-3.55
2022-11-16T19:42:22.248Z,-3.49
2022-11-16T19:44:51.492Z,-3.44
2022-11-16T19:47:22.666Z,-3.39
2022-11-16T19:49:52.600Z,-3.33
2022-11-16T19:52:22.303Z,-3.30
2022-11-16T19:54:51.554Z,-3.28
2022-11-16T19:57:23.035Z,-3.29
2022-11-16T19:59:57.217Z,-3.30
2022-11-16T20:02:26.632Z,-3.26
2022-11-16T20:04:55.674Z,-3.25
2022-11-16T20:07:25.166Z,-3.22
2022-11-16T20:09:55.321Z,-3.28
2022-11-16T20:12:26.732Z,-3.15
2022-11-16T20:14:56.072Z,-3.06
2022-11-16T20:17:25.267Z,-3.01
2022-11-16T20:19:54.503Z,-2.99
2022-11-16T20:22:23.942Z,-3.00
2022-11-16T20:24:54.192Z,-2.95
2022-11-16T20:27:30.720Z,-2.92
2022-11-16T20:30:02.649Z,-2.88
2022-11-16T20:32:34.387Z,-2.89
2022-11-16T20:35:03.397Z,-2.86
2022-11-16T20:37:32.901Z,-2.84
2022-11-16T20:40:02.131Z,-2.87
2022-11-16T20:42:34.551Z,-2.95
2022-11-16T20:45:06.605Z,-2.80
2022-11-16T20:47:41.032Z,-2.81
2022-11-16T20:50:15.238Z,-2.82
2022-11-16T20:52:48.566Z,-2.84
2022-11-16T20:55:26.813Z,-2.91
2022-11-16T20:57:57.937Z,-2.87
2022-11-16T21:00:27.146Z,-2.95
2022-11-16T21:03:01.168Z,-2.97
2022-11-16T21:05:32.245Z,-3.07
2022-11-16T21:08:01.536Z,-3.13
2022-11-16T21:10:33.495Z,-3.20
2022-11-16T21:13:17.279Z,-2.93
2022-11-16T21:15:57.059Z,-3.03
2022-11-16T21:18:30.737Z,-3.03
2022-11-16T21:21:01.480Z,-3.13
2022-11-16T21:23:38.619Z,-3.10
2022-11-16T21:26:10.785Z,-3.11
2022-11-16T21:28:44.522Z,-3.11
2022-11-16T21:33:56.522Z,-3.07
2022-11-16T21:36:32.362Z,-3.07
2022-11-16T21:39:01.939Z,-3.13
2022-11-16T21:41:31.359Z,-2.93
2022-11-16T21:44:02.561Z,-2.89
2022-11-16T21:46:31.674Z,-2.87
2022-11-16T21:49:07.469Z,-3.07
2022-11-16T21:51:36.944Z,-2.82
2022-11-16T21:54:07.848Z,-2.76
2022-11-16T21:56:37.239Z,-2.72
2022-11-16T21:59:08.399Z,-2.72
2022-11-16T22:01:51.689Z,-2.75
2022-11-16T22:04:40.496Z,-2.72
2022-11-16T22:07:28.313Z,-2.70
2022-11-16T22:09:57.524Z,-2.68
2022-11-16T22:12:26.746Z,-2.68
2022-11-16T22:14:58.278Z,-2.74
2022-11-16T22:17:28.755Z,-2.63
2022-11-16T22:20:03.317Z,-2.61
2022-11-16T22:22:32.585Z,-2.62
2022-11-16T22:25:01.826Z,-2.61
2022-11-16T22:27:38.560Z,-2.61
2022-11-16T22:30:24.113Z,-2.60
2022-11-16T22:32:53.172Z,-2.49
2022-11-16T22:35:22.271Z,-2.58
2022-11-16T22:37:56.771Z,-2.62
2022-11-16T22:40:28.724Z,-2.66
2022-11-16T22:42:59.191Z,-2.61
2022-11-16T22:45:30.270Z,-2.59
2022-11-16T22:50:34.606Z,-2.53
2022-11-16T22:53:03.752Z,-2.47
2022-11-16T22:55:41.147Z,-2.47
2022-11-16T22:58:11.352Z,-2.40
2022-11-16T23:00:42.556Z,-2.41
2022-11-16T23:03:14.407Z,-2.36
2022-11-16T23:05:43.506Z,-2.18
2022-11-16T23:08:12.641Z,-2.27
2022-11-16T23:13:47.196Z,-2.24
2022-11-16T23:18:58.374Z,-2.32
2022-11-16T23:21:40.619Z,-2.26
2022-11-16T23:24:24.771Z,-2.26
2022-11-16T23:27:06.853Z,-2.27
2022-11-16T23:29:36.131Z,-2.35
2022-11-16T23:32:07.775Z,-2.39
2022-11-16T23:34:37.966Z,-2.29
2022-11-16T23:37:07.920Z,-2.38
2022-11-16T23:39:37.027Z,-2.48
2022-11-16T23:42:19.291Z,-2.50
2022-11-16T23:44:48.408Z,-2.57
2022-11-16T23:47:19.519Z,-2.55
2022-11-16T23:49:53.995Z,-2.63
2022-11-16T23:52:23.811Z,-2.74
2022-11-16T23:54:52.899Z,-2.71
2022-11-16T23:57:24.759Z,-2.73
2022-11-16T23:59:53.613Z,-2.62
